Terminal Aerodrome Forecast
Issued by NWS

Home | Current Version | Previous Version | Text Only | Print | Product List | Glossary On
Versions: 1 2 3 4 5 6 7 8 9 10 11 12 13 14 15 16 17 18 19 20 21 22 23 24 25 26 27 28 29 30 31 32 33 34 35 36 37 38 39 40 41 42
000
FTUS44 KLIX 230521
TAFHUM
TAF
KHUM 230521Z 2306/2406 00000KT 1/4SM FG VV002
     FM230800 VRB03KT 2SM BR BKN012
     FM231300 VRB03KT P6SM FEW150
     FM231600 10007KT P6SM FEW250
     FM240100 12007KT P6SM BKN050
     FM240400 12008KT P6SM BKN008=

USA.gov is the U.S. government's official web portal to all federal, state and local government web resources and services.